Time;durP1;ratioP1;P1;durP2;ratioP2;P2;SDS_P1;SDS_P2;PMS_P1;PMS_P2;Temp;Humidity;BMP_temperature;BMP_pressure;BME280_temperature;BME280_humidity;BME280_pressure;Samples;Min_cycle;Max_cycle;Signal;HPM_P1;HPM_P2
2024/02/01 00:01:59;;;;;;;50.97;21.87;;;;;;;;;;5000356;28;20230;-89
2024/02/01 00:05:08;;;;;;;46.07;20.43;;;;;;;;;;5006741;28;20182;-90
2024/02/01 00:08:16;;;;;;;45.03;20.77;;;;;;;;;;5011534;28;20185;-90
2024/02/01 00:11:21;;;;;;;39.37;19.73;;;;;;;;;;5007118;28;20185;-89
2024/02/01 00:14:26;;;;;;;47.07;21.33;;;;;;;;;;5003984;28;20193;-90
2024/02/01 00:17:33;;;;;;;43.73;20.23;;;;;;;;;;5009113;28;20205;-89
2024/02/01 00:20:40;;;;;;;43.10;19.10;;;;;;;;;;5005451;28;20679;-88
2024/02/01 00:23:45;;;;;;;43.70;19.83;;;;;;;;;;5004013;28;20184;-88
2024/02/01 00:26:50;;;;;;;48.37;19.80;;;;;;;;;;5004311;28;20185;-89
2024/02/01 00:29:55;;;;;;;43.40;20.47;;;;;;;;;;5004633;28;20200;-88
2024/02/01 00:33:00;;;;;;;44.27;19.40;;;;;;;;;;5003907;28;20196;-89
2024/02/01 00:36:08;;;;;;;40.17;18.83;;;;;;;;;;5006093;28;20189;-89
2024/02/01 00:39:14;;;;;;;44.60;20.40;;;;;;;;;;5006768;28;20301;-88
2024/02/01 00:42:19;;;;;;;43.73;20.43;;;;;;;;;;5005561;28;20192;-88
2024/02/01 00:45:24;;;;;;;49.20;21.20;;;;;;;;;;5006332;28;20779;-88
2024/02/01 00:48:29;;;;;;;50.37;21.23;;;;;;;;;;5005077;28;20236;-88
2024/02/01 00:51:37;;;;;;;48.33;21.07;;;;;;;;;;5008492;28;20185;-88
2024/02/01 00:54:42;;;;;;;49.30;20.83;;;;;;;;;;5006728;28;20186;-90
2024/02/01 00:57:47;;;;;;;48.90;21.53;;;;;;;;;;5005091;28;20193;-90
2024/02/01 01:00:52;;;;;;;51.60;22.03;;;;;;;;;;5006492;28;20229;-89
2024/02/01 01:03:58;;;;;;;48.20;21.77;;;;;;;;;;5005087;28;20197;-90
2024/02/01 01:07:05;;;;;;;47.00;21.03;;;;;;;;;;5006919;28;20185;-89
2024/02/01 01:10:11;;;;;;;71.07;30.37;;;;;;;;;;5008355;28;20266;-91
2024/02/01 01:13:16;;;;;;;52.27;22.57;;;;;;;;;;5007440;28;20185;-90
2024/02/01 01:16:21;;;;;;;55.27;22.50;;;;;;;;;;5009288;28;20205;-90
2024/02/01 01:19:26;;;;;;;49.00;21.97;;;;;;;;;;5006955;28;20248;-89
2024/02/01 01:22:32;;;;;;;49.53;21.73;;;;;;;;;;5007109;28;20201;-89
2024/02/01 01:25:38;;;;;;;50.93;22.10;;;;;;;;;;5012139;28;20264;-89
2024/02/01 01:28:44;;;;;;;49.80;21.73;;;;;;;;;;5013292;28;20290;-90
2024/02/01 01:31:50;;;;;;;46.43;21.90;;;;;;;;;;5013890;28;20243;-90
2024/02/01 01:34:55;;;;;;;47.03;20.90;;;;;;;;;;5011743;28;20711;-91
2024/02/01 01:38:02;;;;;;;49.00;21.67;;;;;;;;;;5005644;28;20196;-90
2024/02/01 01:41:07;;;;;;;50.60;21.90;;;;;;;;;;5006054;28;20208;-90
2024/02/01 01:44:12;;;;;;;50.30;21.77;;;;;;;;;;5005211;28;20200;-90
2024/02/01 01:47:17;;;;;;;53.87;21.87;;;;;;;;;;5006036;28;20732;-89
2024/02/01 01:50:22;;;;;;;48.13;22.20;;;;;;;;;;5005712;28;20205;-91
2024/02/01 01:53:30;;;;;;;49.37;21.77;;;;;;;;;;4985840;28;20321;-90
2024/02/01 01:56:37;;;;;;;53.37;23.23;;;;;;;;;;4986786;28;20222;-90
2024/02/01 01:59:42;;;;;;;53.03;22.17;;;;;;;;;;4990119;28;20217;-90
2024/02/01 02:02:48;;;;;;;51.60;23.47;;;;;;;;;;5004875;28;20209;-90
2024/02/01 02:05:53;;;;;;;48.23;22.47;;;;;;;;;;5005388;28;20622;-88
2024/02/01 02:08:59;;;;;;;50.77;22.67;;;;;;;;;;5005135;28;20260;-90
2024/02/01 02:12:05;;;;;;;56.07;23.97;;;;;;;;;;5005165;28;20258;-88
2024/02/01 02:15:12;;;;;;;55.57;24.33;;;;;;;;;;4985286;28;20271;-88
2024/02/01 02:18:17;;;;;;;48.53;22.33;;;;;;;;;;4984095;28;20249;-88
2024/02/01 02:21:23;;;;;;;54.10;24.57;;;;;;;;;;4986426;28;20182;-90
2024/02/01 02:24:30;;;;;;;59.80;24.50;;;;;;;;;;4984059;28;20719;-89
2024/02/01 02:27:35;;;;;;;60.57;25.27;;;;;;;;;;4985700;28;20201;-90
2024/02/01 02:30:41;;;;;;;48.03;21.57;;;;;;;;;;4985957;28;20237;-89
2024/02/01 02:33:46;;;;;;;51.60;22.80;;;;;;;;;;4986267;28;20284;-88
2024/02/01 02:36:51;;;;;;;50.03;21.57;;;;;;;;;;4985392;28;20190;-88
2024/02/01 02:39:57;;;;;;;50.60;22.87;;;;;;;;;;4984973;28;20217;-88
2024/02/01 02:43:03;;;;;;;47.57;21.83;;;;;;;;;;4985386;28;20742;-87
2024/02/01 02:46:08;;;;;;;51.50;22.07;;;;;;;;;;4984598;28;20665;-89
2024/02/01 02:49:13;;;;;;;50.67;21.90;;;;;;;;;;4984947;28;20193;-89
2024/02/01 02:52:18;;;;;;;49.00;21.60;;;;;;;;;;4985048;28;20190;-90
2024/02/01 02:55:25;;;;;;;53.30;22.07;;;;;;;;;;4984294;28;20205;-89
2024/02/01 02:58:30;;;;;;;48.77;22.00;;;;;;;;;;5317897;23;20260;-90
2024/02/01 03:01:35;;;;;;;53.03;23.33;;;;;;;;;;5004947;28;20181;-89
2024/02/01 03:04:41;;;;;;;51.67;22.97;;;;;;;;;;5005324;28;20307;-90
2024/02/01 03:07:45;;;;;;;49.53;21.63;;;;;;;;;;4985223;28;20231;-89
2024/02/01 03:10:52;;;;;;;46.87;21.33;;;;;;;;;;4987026;28;20194;-90
2024/02/01 03:13:56;;;;;;;54.93;22.60;;;;;;;;;;5004342;28;20189;-89
2024/02/01 03:17:05;;;;;;;53.00;22.37;;;;;;;;;;5005677;28;20189;-89
2024/02/01 03:20:17;;;;;;;46.73;21.43;;;;;;;;;;5005073;28;20226;-91
2024/02/01 03:23:23;;;;;;;50.07;20.53;;;;;;;;;;5004292;28;20197;-90
2024/02/01 03:26:34;;;;;;;46.30;21.50;;;;;;;;;;5005521;28;20668;-89
2024/02/01 03:29:39;;;;;;;45.93;21.20;;;;;;;;;;5003769;28;20186;-90
2024/02/01 03:32:45;;;;;;;49.40;21.57;;;;;;;;;;5004786;28;20241;-89
2024/02/01 03:35:51;;;;;;;49.33;21.67;;;;;;;;;;5006003;28;20189;-90
2024/02/01 03:38:57;;;;;;;53.40;20.63;;;;;;;;;;4986474;28;20193;-89
2024/02/01 03:42:05;;;;;;;50.43;21.37;;;;;;;;;;4986843;28;20275;-88
2024/02/01 03:45:13;;;;;;;43.13;20.73;;;;;;;;;;4997169;28;20291;-89
2024/02/01 03:48:20;;;;;;;44.27;21.03;;;;;;;;;;5005097;28;20193;-90
2024/02/01 03:51:25;;;;;;;47.83;21.07;;;;;;;;;;5004362;28;20320;-89
2024/02/01 03:54:31;;;;;;;49.77;21.07;;;;;;;;;;5004080;28;20197;-89
2024/02/01 03:57:39;;;;;;;45.77;20.43;;;;;;;;;;5004609;28;20213;-90
2024/02/01 04:00:44;;;;;;;44.43;20.50;;;;;;;;;;5004244;28;20290;-90
2024/02/01 04:03:49;;;;;;;49.03;20.10;;;;;;;;;;5002507;28;20203;-89
2024/02/01 04:06:54;;;;;;;46.80;20.20;;;;;;;;;;5004019;28;20193;-89
2024/02/01 04:09:59;;;;;;;48.60;21.10;;;;;;;;;;5002937;28;20273;-89
2024/02/01 04:13:10;;;;;;;42.03;20.47;;;;;;;;;;5006168;28;20237;-91
2024/02/01 04:16:17;;;;;;;48.73;20.80;;;;;;;;;;5003436;28;20185;-90
2024/02/01 04:19:22;;;;;;;47.77;20.87;;;;;;;;;;5004235;28;20348;-90
2024/02/01 04:22:27;;;;;;;44.60;20.83;;;;;;;;;;5004059;28;20665;-90
2024/02/01 04:25:32;;;;;;;53.57;21.50;;;;;;;;;;5021973;28;20263;-88
2024/02/01 04:28:39;;;;;;;52.17;22.33;;;;;;;;;;5023453;28;20196;-88
2024/02/01 04:31:44;;;;;;;48.50;21.23;;;;;;;;;;5027230;28;20268;-89
2024/02/01 04:34:49;;;;;;;46.03;21.57;;;;;;;;;;5027756;28;20208;-90
2024/02/01 04:37:54;;;;;;;41.70;18.97;;;;;;;;;;4987380;28;20205;-90
2024/02/01 04:40:59;;;;;;;46.37;20.93;;;;;;;;;;4983986;28;20213;-89
2024/02/01 04:44:08;;;;;;;46.40;20.80;;;;;;;;;;4991855;28;20194;-89
2024/02/01 04:47:13;;;;;;;49.03;21.73;;;;;;;;;;4989598;28;20233;-88
2024/02/01 04:50:18;;;;;;;44.57;19.47;;;;;;;;;;4998911;28;20332;-89
2024/02/01 04:53:23;;;;;;;43.87;20.10;;;;;;;;;;5010600;28;20189;-89
2024/02/01 04:56:36;;;;;;;49.50;21.27;;;;;;;;;;5015258;28;20189;-89
2024/02/01 04:59:45;;;;;;;41.47;20.33;;;;;;;;;;4999131;28;20212;-88
2024/02/01 05:02:50;;;;;;;50.13;21.77;;;;;;;;;;5010304;28;20189;-89
2024/02/01 05:06:00;;;;;;;43.90;19.90;;;;;;;;;;5010815;28;20185;-89
2024/02/01 05:09:23;;;;;;;45.30;20.10;;;;;;;;;;5011040;28;20270;-89
2024/02/01 05:12:28;;;;;;;46.13;20.47;;;;;;;;;;5007290;28;20756;-89
2024/02/01 05:15:34;;;;;;;47.43;19.57;;;;;;;;;;5009258;28;20197;-89
2024/02/01 05:18:40;;;;;;;44.97;20.60;;;;;;;;;;5008135;28;20648;-89
2024/02/01 05:21:45;;;;;;;47.03;20.37;;;;;;;;;;4989308;28;20178;-90
2024/02/01 05:24:51;;;;;;;48.23;21.03;;;;;;;;;;4991038;28;20186;-89
2024/02/01 05:28:09;;;;;;;46.30;20.17;;;;;;;;;;5017152;28;20234;-91
2024/02/01 05:31:19;;;;;;;42.43;18.90;;;;;;;;;;5012138;28;20656;-90
2024/02/01 05:34:24;;;;;;;44.23;20.20;;;;;;;;;;5009713;28;20222;-90
2024/02/01 05:37:30;;;;;;;42.00;19.73;;;;;;;;;;5010181;28;20184;-89
2024/02/01 05:40:35;;;;;;;46.97;21.50;;;;;;;;;;5007724;28;20248;-89
2024/02/01 05:43:40;;;;;;;44.90;20.70;;;;;;;;;;5010915;28;20220;-90
2024/02/01 05:46:47;;;;;;;48.33;22.67;;;;;;;;;;5013903;28;20232;-87
2024/02/01 05:49:56;;;;;;;53.63;21.37;;;;;;;;;;5012502;28;20294;-90
2024/02/01 05:53:02;;;;;;;46.37;20.50;;;;;;;;;;5009556;28;20333;-90
2024/02/01 05:56:08;;;;;;;49.70;21.23;;;;;;;;;;5010493;28;20320;-90
2024/02/01 05:59:14;;;;;;;45.43;21.60;;;;;;;;;;5010444;28;20276;-89
2024/02/01 06:02:21;;;;;;;49.60;22.13;;;;;;;;;;4994893;28;20196;-89
2024/02/01 06:05:26;;;;;;;45.60;21.33;;;;;;;;;;5006710;28;20205;-89
2024/02/01 06:08:31;;;;;;;46.50;20.57;;;;;;;;;;4989243;28;20194;-88
2024/02/01 06:11:36;;;;;;;45.33;20.63;;;;;;;;;;4989170;28;20189;-89
2024/02/01 06:14:41;;;;;;;52.30;21.57;;;;;;;;;;4997500;28;20292;-89
2024/02/01 06:17:57;;;;;;;52.00;23.43;;;;;;;;;;5010716;28;20189;-88
2024/02/01 06:21:02;;;;;;;53.33;22.10;;;;;;;;;;5009607;28;20221;-89
2024/02/01 06:24:10;;;;;;;51.77;22.27;;;;;;;;;;4989917;28;20267;-89
2024/02/01 06:27:15;;;;;;;50.30;22.30;;;;;;;;;;4991482;28;20190;-90
2024/02/01 06:30:23;;;;;;;52.73;22.07;;;;;;;;;;4991278;28;20541;-90
2024/02/01 06:33:31;;;;;;;51.10;21.93;;;;;;;;;;4990703;28;20182;-91
2024/02/01 06:36:39;;;;;;;51.87;21.97;;;;;;;;;;4989503;28;20283;-90
2024/02/01 06:40:10;;;;;;;50.47;21.90;;;;;;;;;;4989954;28;20343;-88
2024/02/01 06:43:31;;;;;;;45.60;20.73;;;;;;;;;;5008972;28;20189;-89
2024/02/01 06:47:05;;;;;;;46.00;20.87;;;;;;;;;;5013278;28;20178;-90
2024/02/01 06:50:34;;;;;;;45.97;19.93;;;;;;;;;;5008336;28;20200;-90
2024/02/01 06:53:56;;;;;;;45.93;20.83;;;;;;;;;;5014209;28;20565;-88
2024/02/01 06:57:13;;;;;;;47.43;20.83;;;;;;;;;;5010374;28;20197;-89
2024/02/01 07:00:40;;;;;;;41.47;19.30;;;;;;;;;;5009284;28;20275;-92
2024/02/01 07:03:51;;;;;;;47.20;20.53;;;;;;;;;;5010784;28;20289;-89
2024/02/01 07:07:18;;;;;;;48.37;20.57;;;;;;;;;;5009707;28;20285;-89
2024/02/01 07:10:32;;;;;;;46.17;20.30;;;;;;;;;;5006110;28;20249;-90
2024/02/01 07:13:47;;;;;;;48.03;21.03;;;;;;;;;;5007469;28;20286;-90
2024/02/01 07:17:06;;;;;;;53.10;21.73;;;;;;;;;;5008428;28;20193;-89
2024/02/01 07:20:14;;;;;;;51.13;21.63;;;;;;;;;;5008293;28;20217;-91
2024/02/01 07:23:48;;;;;;;50.67;21.80;;;;;;;;;;5007216;28;20241;-87
2024/02/01 07:57:35;;;;;;;47.37;20.87;;;;;;;;;;5009424;28;20181;-90
2024/02/01 07:57:50;;;;;;;43.83;17.67;;;;;;;;;;5010786;28;20208;-90
2024/02/01 08:00:56;;;;;;;46.57;20.50;;;;;;;;;;5007690;28;20308;-89
2024/02/01 08:04:12;;;;;;;48.93;19.87;;;;;;;;;;5008761;28;20329;-90
2024/02/01 08:10:41;;;;;;;56.40;22.20;;;;;;;;;;5010098;28;20193;-89
2024/02/01 08:13:53;;;;;;;48.83;20.23;;;;;;;;;;4989778;28;20212;-90
2024/02/01 08:17:04;;;;;;;51.07;22.23;;;;;;;;;;4985655;28;20194;-89
2024/02/01 08:20:13;;;;;;;53.00;21.90;;;;;;;;;;4986272;28;20198;-89
2024/02/01 08:23:23;;;;;;;49.13;21.67;;;;;;;;;;4984656;28;20190;-90
2024/02/01 08:26:37;;;;;;;60.70;23.13;;;;;;;;;;4987117;28;20177;-90
2024/02/01 08:29:47;;;;;;;52.27;23.10;;;;;;;;;;4987464;28;20561;-89
2024/02/01 08:32:53;;;;;;;63.33;24.43;;;;;;;;;;5005734;28;20216;-89
2024/02/01 08:36:00;;;;;;;54.40;23.20;;;;;;;;;;5008306;28;20188;-89
2024/02/01 08:39:09;;;;;;;60.03;23.27;;;;;;;;;;5006377;28;20253;-90
2024/02/01 08:42:16;;;;;;;58.83;23.37;;;;;;;;;;5005181;28;20242;-90
2024/02/01 08:45:24;;;;;;;52.83;24.03;;;;;;;;;;5005587;28;20209;-90
2024/02/01 08:48:30;;;;;;;63.83;26.67;;;;;;;;;;5007676;28;20275;-90
2024/02/01 08:51:43;;;;;;;49.00;22.37;;;;;;;;;;5005919;28;20192;-89
2024/02/01 08:54:51;;;;;;;55.23;23.37;;;;;;;;;;5005458;28;20201;-90
2024/02/01 08:58:08;;;;;;;49.10;22.80;;;;;;;;;;5007337;28;20217;-88
2024/02/01 09:01:25;;;;;;;61.53;26.60;;;;;;;;;;5007972;28;20232;-91
2024/02/01 09:04:31;;;;;;;56.13;23.10;;;;;;;;;;5008117;28;20185;-90
2024/02/01 11:00:02;;;;;;;2.33;1.80;;;;;;;;;;5204162;23;20232;-90
2024/02/01 11:03:09;;;;;;;1.77;1.67;;;;;;;;;;5026802;28;20199;-91
2024/02/01 11:06:14;;;;;;;2.33;2.13;;;;;;;;;;5026512;28;20296;-90
2024/02/01 11:09:22;;;;;;;7.22;2.55;;;;;;;;;;5027330;28;20272;-91
2024/02/01 11:12:28;;;;;;;1.23;1.03;;;;;;;;;;5026202;28;20208;-89
2024/02/01 11:15:36;;;;;;;0.73;0.73;;;;;;;;;;5027149;28;20212;-91
2024/02/01 11:18:50;;;;;;;1.43;1.10;;;;;;;;;;5028001;28;20212;-90
2024/02/01 11:21:57;;;;;;;1.53;1.43;;;;;;;;;;5025962;28;20278;-89
2024/02/01 11:25:04;;;;;;;10.43;2.25;;;;;;;;;;5026920;28;20243;-90
2024/02/01 11:28:12;;;;;;;5.63;1.90;;;;;;;;;;5025599;28;20188;-89
2024/02/01 11:31:22;;;;;;;4.00;2.97;;;;;;;;;;5028600;28;20235;-90
2024/02/01 11:34:53;;;;;;;3.72;2.15;;;;;;;;;;5020046;28;20340;-89
2024/02/01 11:38:01;;;;;;;6.90;3.40;;;;;;;;;;5008432;28;20185;-91
2024/02/01 11:41:08;;;;;;;6.75;3.85;;;;;;;;;;5007653;28;20221;-90
2024/02/01 11:44:19;;;;;;;3.55;1.50;;;;;;;;;;5007867;28;20190;-91
2024/02/01 11:47:28;;;;;;;0.63;0.63;;;;;;;;;;5019225;28;20185;-90
2024/02/01 11:50:35;;;;;;;3.40;2.25;;;;;;;;;;5006232;28;20233;-90
2024/02/01 11:53:42;;;;;;;1.27;1.17;;;;;;;;;;5006881;28;20209;-90
2024/02/01 11:56:47;;;;;;;0.70;0.70;;;;;;;;;;5004759;28;20209;-89
2024/02/01 11:59:55;;;;;;;1.02;0.95;;;;;;;;;;5004486;28;20213;-89
2024/02/01 12:03:07;;;;;;;1.15;0.82;;;;;;;;;;5006670;28;20324;-89
2024/02/01 12:06:13;;;;;;;1.42;1.33;;;;;;;;;;5004872;28;20176;-90
2024/02/01 12:09:20;;;;;;;20.08;1.73;;;;;;;;;;5004208;28;20250;-91
2024/02/01 13:43:34;;;;;;;0.43;0.43;;;;;;;;;;5520450;23;20285;-89
2024/02/01 13:46:39;;;;;;;0.40;0.40;;;;;;;;;;5011336;28;20237;-90
2024/02/01 13:49:47;;;;;;;0.32;0.32;;;;;;;;;;5011309;28;20193;-90
2024/02/01 13:52:55;;;;;;;0.55;0.55;;;;;;;;;;5009602;28;20264;-89
2024/02/01 13:56:00;;;;;;;0.50;0.50;;;;;;;;;;4997358;28;20180;-90
2024/02/01 13:59:08;;;;;;;26.42;0.93;;;;;;;;;;4994776;28;20197;-89
2024/02/01 14:02:18;;;;;;;0.77;0.77;;;;;;;;;;5011096;28;20286;-91
2024/02/01 14:05:26;;;;;;;0.50;0.50;;;;;;;;;;5010112;28;20217;-90
2024/02/01 14:08:34;;;;;;;1.30;1.20;;;;;;;;;;4990449;28;20192;-88
2024/02/01 14:11:40;;;;;;;0.65;0.60;;;;;;;;;;4992184;28;20193;-90
2024/02/01 14:14:46;;;;;;;1.75;1.05;;;;;;;;;;4988495;28;20186;-90
2024/02/01 14:17:54;;;;;;;0.35;0.35;;;;;;;;;;5001093;28;20715;-91
2024/02/01 14:21:01;;;;;;;0.75;0.75;;;;;;;;;;5012137;28;20197;-90
2024/02/01 14:24:09;;;;;;;0.47;0.47;;;;;;;;;;4999215;28;20224;-89
2024/02/01 14:27:18;;;;;;;0.70;0.70;;;;;;;;;;5015101;28;20301;-91
2024/02/01 14:30:26;;;;;;;1.48;1.38;;;;;;;;;;5010154;28;20181;-90
2024/02/01 14:33:32;;;;;;;0.73;0.73;;;;;;;;;;5008925;28;20201;-89
2024/02/01 14:36:38;;;;;;;0.40;0.40;;;;;;;;;;5008965;28;20197;-91
2024/02/01 14:39:43;;;;;;;0.40;0.40;;;;;;;;;;5008994;28;20201;-89
2024/02/01 14:42:49;;;;;;;0.57;0.57;;;;;;;;;;5009451;28;20228;-90
2024/02/01 14:45:57;;;;;;;0.77;0.63;;;;;;;;;;5009348;28;20205;-88
2024/02/01 14:49:04;;;;;;;7.53;0.70;;;;;;;;;;5010435;28;20240;-89
2024/02/01 14:52:17;;;;;;;1.10;1.05;;;;;;;;;;5010145;28;20197;-91
2024/02/01 14:55:24;;;;;;;2.38;1.00;;;;;;;;;;5009268;28;20282;-91
2024/02/01 14:58:30;;;;;;;0.75;0.52;;;;;;;;;;5009770;28;20206;-89
2024/02/01 15:01:37;;;;;;;2.10;0.88;;;;;;;;;;5009053;28;20204;-90
2024/02/01 15:04:47;;;;;;;1.45;1.35;;;;;;;;;;5011417;28;20181;-90
2024/02/01 15:07:54;;;;;;;0.47;0.47;;;;;;;;;;5011266;28;20197;-91
2024/02/01 15:11:03;;;;;;;0.70;0.70;;;;;;;;;;5009019;28;20192;-90
2024/02/01 15:14:16;;;;;;;0.57;0.57;;;;;;;;;;5007661;28;20220;-89
2024/02/01 15:17:24;;;;;;;1.45;1.10;;;;;;;;;;5005154;28;20192;-91
2024/02/01 15:20:34;;;;;;;4.78;1.13;;;;;;;;;;5007805;28;20193;-90
2024/02/01 15:23:42;;;;;;;0.70;0.70;;;;;;;;;;5010469;28;20190;-88
2024/02/01 15:26:51;;;;;;;0.52;0.52;;;;;;;;;;4996705;28;20208;-89
2024/02/01 15:30:09;;;;;;;0.47;0.47;;;;;;;;;;5006622;28;20276;-88
2024/02/01 15:33:16;;;;;;;0.98;0.80;;;;;;;;;;5008294;28;20185;-89
2024/02/01 15:36:31;;;;;;;0.65;0.65;;;;;;;;;;5008200;28;20182;-90
2024/02/01 15:39:39;;;;;;;0.63;0.63;;;;;;;;;;5008047;28;20190;-89
2024/02/01 15:42:44;;;;;;;0.88;0.68;;;;;;;;;;5007884;28;20237;-90
2024/02/01 15:45:51;;;;;;;0.35;0.35;;;;;;;;;;5007776;28;20212;-91
2024/02/01 15:49:02;;;;;;;0.60;0.60;;;;;;;;;;5010710;28;20197;-90
2024/02/01 15:52:07;;;;;;;0.52;0.52;;;;;;;;;;5008052;28;20213;-91
2024/02/01 15:55:16;;;;;;;0.40;0.40;;;;;;;;;;5008530;28;20193;-90
2024/02/01 15:58:22;;;;;;;0.68;0.68;;;;;;;;;;5007603;28;20201;-90
2024/02/01 16:01:31;;;;;;;0.57;0.57;;;;;;;;;;4997392;28;20202;-89
2024/02/01 16:04:39;;;;;;;0.32;0.32;;;;;;;;;;5009291;28;20213;-92
2024/02/01 16:07:51;;;;;;;0.60;0.60;;;;;;;;;;5010211;28;20234;-89
2024/02/01 16:11:00;;;;;;;0.70;0.70;;;;;;;;;;5008066;28;20213;-88
2024/02/01 16:14:14;;;;;;;0.55;0.55;;;;;;;;;;5012746;28;20193;-89
2024/02/01 16:17:21;;;;;;;0.70;0.70;;;;;;;;;;5010127;28;20256;-89
2024/02/01 16:20:41;;;;;;;0.82;0.82;;;;;;;;;;5009761;28;20200;-92
2024/02/01 16:23:52;;;;;;;1.75;0.85;;;;;;;;;;5008264;28;20228;-89
2024/02/01 16:27:00;;;;;;;1.17;0.77;;;;;;;;;;5008796;28;20204;-90
2024/02/01 16:30:25;;;;;;;0.68;0.68;;;;;;;;;;5002984;28;20197;-89
2024/02/01 16:33:32;;;;;;;2.17;1.05;;;;;;;;;;5007394;28;20269;-89
2024/02/01 16:36:59;;;;;;;0.50;0.50;;;;;;;;;;5006209;28;20295;-89
2024/02/01 16:40:13;;;;;;;0.90;0.90;;;;;;;;;;5004123;28;20209;-89
2024/02/01 16:43:28;;;;;;;1.92;1.05;;;;;;;;;;4999227;28;20268;-91
2024/02/01 16:46:47;;;;;;;0.40;0.40;;;;;;;;;;4992224;28;20205;-89
2024/02/01 16:50:00;;;;;;;0.90;0.68;;;;;;;;;;5007561;28;20205;-88
2024/02/01 16:53:08;;;;;;;0.50;0.50;;;;;;;;;;5004859;28;20248;-89
2024/02/01 16:56:17;;;;;;;1.92;0.77;;;;;;;;;;5006135;28;20209;-91
2024/02/01 16:59:26;;;;;;;0.50;0.50;;;;;;;;;;5019193;28;20211;-90
2024/02/01 17:02:40;;;;;;;5.63;0.80;;;;;;;;;;5027173;28;20216;-91
2024/02/01 17:05:45;;;;;;;0.98;0.93;;;;;;;;;;4993843;28;20285;-90
2024/02/01 17:08:53;;;;;;;2.15;1.13;;;;;;;;;;5006392;28;20269;-90
2024/02/01 17:12:00;;;;;;;1.85;1.35;;;;;;;;;;5006722;28;20301;-91
2024/02/01 17:15:07;;;;;;;0.52;0.52;;;;;;;;;;4991216;28;20241;-87
2024/02/01 17:18:15;;;;;;;1.35;0.60;;;;;;;;;;4988403;28;20250;-90
2024/02/01 17:21:22;;;;;;;0.65;0.65;;;;;;;;;;4986332;28;20205;-90
2024/02/01 17:24:29;;;;;;;4.15;0.45;;;;;;;;;;4986027;28;20198;-90
2024/02/01 17:27:37;;;;;;;0.55;0.55;;;;;;;;;;4986028;28;20210;-91
2024/02/01 17:31:02;;;;;;;1.58;1.35;;;;;;;;;;4975297;28;20189;-88
2024/02/01 17:34:17;;;;;;;1.52;0.90;;;;;;;;;;4986546;28;20199;-90
2024/02/01 17:37:37;;;;;;;1.65;0.98;;;;;;;;;;4985796;28;20198;-90
2024/02/01 17:40:53;;;;;;;0.70;0.70;;;;;;;;;;4988248;28;20178;-90
2024/02/01 17:44:06;;;;;;;1.35;0.73;;;;;;;;;;4997965;28;20229;-90
2024/02/01 17:47:15;;;;;;;0.60;0.60;;;;;;;;;;5004277;28;20266;-90
2024/02/01 17:50:25;;;;;;;0.50;0.50;;;;;;;;;;5005120;28;20660;-90
2024/02/01 17:53:39;;;;;;;1.25;1.15;;;;;;;;;;5009259;28;20196;-90
2024/02/01 17:56:47;;;;;;;2.15;1.20;;;;;;;;;;5011071;28;20684;-91
2024/02/01 17:59:56;;;;;;;1.15;1.05;;;;;;;;;;5009785;28;20225;-91
2024/02/01 18:03:04;;;;;;;1.17;1.00;;;;;;;;;;5009588;28;20193;-91
2024/02/01 18:06:12;;;;;;;0.50;0.50;;;;;;;;;;5012301;28;20269;-91
2024/02/01 18:09:24;;;;;;;1.13;1.02;;;;;;;;;;5010876;28;20190;-91
2024/02/01 18:12:29;;;;;;;1.33;1.20;;;;;;;;;;5009678;28;20360;-91
2024/02/01 18:15:55;;;;;;;14.93;1.42;;;;;;;;;;5011869;28;20261;-90
2024/02/01 18:19:06;;;;;;;1.15;1.05;;;;;;;;;;5011933;28;20241;-90
2024/02/01 18:22:15;;;;;;;0.70;0.70;;;;;;;;;;5012733;28;20328;-90
2024/02/01 18:25:30;;;;;;;1.05;0.90;;;;;;;;;;5012101;28;20280;-89
2024/02/01 18:28:38;;;;;;;1.67;0.80;;;;;;;;;;5009124;28;20562;-88
2024/02/01 18:31:44;;;;;;;1.27;1.15;;;;;;;;;;5011278;28;20193;-90
2024/02/01 18:34:52;;;;;;;1.05;0.95;;;;;;;;;;5009839;28;20193;-88
2024/02/01 18:37:59;;;;;;;1.60;1.23;;;;;;;;;;5009875;28;20185;-89
2024/02/01 18:41:05;;;;;;;0.85;0.85;;;;;;;;;;5009054;28;20193;-90
2024/02/01 18:44:27;;;;;;;0.40;0.40;;;;;;;;;;5010321;28;20231;-89
2024/02/01 18:47:40;;;;;;;0.87;0.87;;;;;;;;;;5007585;28;20188;-90
2024/02/01 18:50:48;;;;;;;0.68;0.68;;;;;;;;;;5010300;28;20198;-89
2024/02/01 18:53:57;;;;;;;1.85;1.52;;;;;;;;;;5010653;28;20181;-91
2024/02/01 18:57:07;;;;;;;0.50;0.50;;;;;;;;;;5010083;28;20216;-91
2024/02/01 19:00:27;;;;;;;1.95;1.08;;;;;;;;;;5011122;28;20189;-91
2024/02/01 19:03:47;;;;;;;0.55;0.55;;;;;;;;;;5012189;28;20229;-91
2024/02/01 19:07:12;;;;;;;0.60;0.60;;;;;;;;;;5014076;28;20182;-91
2024/02/01 19:10:39;;;;;;;0.82;0.82;;;;;;;;;;5015202;28;20181;-90
2024/02/01 19:13:59;;;;;;;1.20;1.05;;;;;;;;;;5014391;28;20178;-92
2024/02/01 19:17:15;;;;;;;1.95;1.42;;;;;;;;;;5014046;28;20196;-89
2024/02/01 19:20:26;;;;;;;1.67;0.95;;;;;;;;;;5012568;28;20193;-90
2024/02/01 19:23:32;;;;;;;0.77;0.70;;;;;;;;;;5001983;28;20213;-89
2024/02/01 19:26:42;;;;;;;1.58;1.20;;;;;;;;;;5012805;28;20259;-90
2024/02/01 19:29:52;;;;;;;2.60;1.25;;;;;;;;;;5013253;28;20266;-90
2024/02/01 19:32:58;;;;;;;2.95;1.80;;;;;;;;;;5013781;28;20193;-90
2024/02/01 19:36:08;;;;;;;1.00;0.75;;;;;;;;;;5012362;28;20189;-89
2024/02/01 19:39:22;;;;;;;6.00;2.50;;;;;;;;;;5013635;28;20254;-91
2024/02/01 19:42:40;;;;;;;5.72;2.10;;;;;;;;;;5013257;28;20176;-90
2024/02/01 19:45:54;;;;;;;2.60;1.05;;;;;;;;;;5014010;28;20196;-89
2024/02/01 19:49:02;;;;;;;1.65;1.55;;;;;;;;;;5014038;28;20220;-91
2024/02/01 19:52:24;;;;;;;5.13;1.77;;;;;;;;;;5010560;28;20257;-92
2024/02/01 19:55:32;;;;;;;3.97;2.22;;;;;;;;;;5012102;28;20193;-90
2024/02/01 19:58:38;;;;;;;0.88;0.88;;;;;;;;;;5010446;28;20213;-90
2024/02/01 20:01:49;;;;;;;4.32;1.73;;;;;;;;;;5012534;28;20189;-90
2024/02/01 20:05:21;;;;;;;1.83;1.65;;;;;;;;;;5011194;28;20339;-88
2024/02/01 20:08:28;;;;;;;27.40;4.43;;;;;;;;;;5009897;28;20181;-90
2024/02/01 20:11:37;;;;;;;2.53;2.00;;;;;;;;;;5009420;28;20189;-89
2024/02/01 20:14:43;;;;;;;5.63;2.05;;;;;;;;;;5009005;28;20189;-91
2024/02/01 20:17:56;;;;;;;2.08;1.92;;;;;;;;;;5011397;28;20205;-91
2024/02/01 20:21:16;;;;;;;2.37;1.67;;;;;;;;;;5009497;28;20217;-90
2024/02/01 20:28:13;;;;;;;1.27;1.17;;;;;;;;;;5011760;28;20270;-89
2024/02/01 20:31:28;;;;;;;1.80;1.70;;;;;;;;;;5009200;28;20236;-91
2024/02/01 20:34:50;;;;;;;0.60;0.60;;;;;;;;;;5000064;28;20196;-90
2024/02/01 20:38:06;;;;;;;1.30;1.20;;;;;;;;;;5010725;28;20200;-91
2024/02/01 20:41:18;;;;;;;1.85;1.60;;;;;;;;;;5009887;28;20178;-91
2024/02/01 20:44:27;;;;;;;0.73;0.73;;;;;;;;;;5011985;28;20213;-89
2024/02/01 20:47:39;;;;;;;1.07;0.97;;;;;;;;;;5001439;28;20185;-91
2024/02/01 20:50:52;;;;;;;2.53;1.40;;;;;;;;;;5010207;28;20248;-91
2024/02/01 20:54:06;;;;;;;1.13;1.07;;;;;;;;;;5009211;28;20216;-90
2024/02/01 20:57:31;;;;;;;9.50;1.95;;;;;;;;;;5011270;28;20197;-90
2024/02/01 21:00:49;;;;;;;0.80;0.80;;;;;;;;;;5011945;28;20185;-90
2024/02/01 21:03:58;;;;;;;0.98;0.98;;;;;;;;;;4991444;28;20225;-90
2024/02/01 21:07:16;;;;;;;2.17;1.30;;;;;;;;;;4995912;28;20282;-90
2024/02/01 21:10:46;;;;;;;1.42;1.30;;;;;;;;;;5034230;28;20377;-90
2024/02/01 21:14:04;;;;;;;1.43;1.33;;;;;;;;;;5032751;28;20196;-91
2024/02/01 21:17:15;;;;;;;1.52;1.20;;;;;;;;;;5034233;28;20196;-90
2024/02/01 21:20:32;;;;;;;3.72;0.90;;;;;;;;;;5032070;28;20192;-90
2024/02/01 21:23:46;;;;;;;1.33;1.20;;;;;;;;;;5003349;28;20220;-88
2024/02/01 21:27:00;;;;;;;2.43;2.00;;;;;;;;;;4992341;28;20198;-90
2024/02/01 21:30:09;;;;;;;1.50;0.87;;;;;;;;;;4994771;28;20177;-90
2024/02/01 21:33:16;;;;;;;1.93;1.63;;;;;;;;;;4992922;28;20276;-90
2024/02/01 21:36:25;;;;;;;1.83;1.67;;;;;;;;;;4995132;28;20264;-92
2024/02/01 21:39:53;;;;;;;0.80;0.80;;;;;;;;;;4994709;28;20215;-90
2024/02/01 21:43:01;;;;;;;2.23;1.73;;;;;;;;;;4995314;28;20186;-90
2024/02/01 21:49:28;;;;;;;0.60;0.60;;;;;;;;;;5012197;28;20189;-91
2024/02/01 21:52:33;;;;;;;9.37;1.37;;;;;;;;;;5012590;28;20177;-91
2024/02/01 21:55:42;;;;;;;2.20;1.83;;;;;;;;;;5012150;28;20192;-90
2024/02/01 21:58:51;;;;;;;1.07;1.00;;;;;;;;;;5013441;28;20197;-93
2024/02/01 22:01:57;;;;;;;2.87;1.87;;;;;;;;;;4994342;28;20267;-91
2024/02/01 22:05:04;;;;;;;5.20;2.10;;;;;;;;;;4992827;28;20225;-92
2024/02/01 22:08:10;;;;;;;6.73;1.47;;;;;;;;;;5001707;28;20192;-93
2024/02/01 22:11:15;;;;;;;1.70;1.60;;;;;;;;;;5010882;28;20529;-90
2024/02/01 22:14:23;;;;;;;1.83;1.30;;;;;;;;;;5014459;28;20197;-90
2024/02/01 22:17:29;;;;;;;4.30;2.57;;;;;;;;;;5012573;28;20185;-90
2024/02/01 22:20:35;;;;;;;3.33;2.67;;;;;;;;;;5011349;28;20181;-90
2024/02/01 22:23:41;;;;;;;3.47;1.57;;;;;;;;;;5000344;28;20263;-90
2024/02/01 22:26:47;;;;;;;0.80;0.80;;;;;;;;;;5012110;28;20189;-90
2024/02/01 22:29:53;;;;;;;3.40;1.20;;;;;;;;;;5010967;28;20189;-91
2024/02/01 22:33:00;;;;;;;3.43;2.03;;;;;;;;;;5011840;28;20242;-89
2024/02/01 22:36:07;;;;;;;2.90;1.60;;;;;;;;;;4988818;28;20325;-90
2024/02/01 22:39:16;;;;;;;0.63;0.63;;;;;;;;;;4991018;28;20300;-92
2024/02/01 22:42:22;;;;;;;2.20;1.90;;;;;;;;;;4993978;28;20197;-90